sensor_id;sensor_type;location;lat;lon;timestamp;pressure;altitude;pressure_sealevel;temperature;humidity
75551;BME280;65071;53.082;18.218;2023-05-07T00:00:05;102057.81;;;5.95;80.56
75551;BME280;65071;53.082;18.218;2023-05-07T00:02:54;102059.92;;;5.90;80.50
75551;BME280;65071;53.082;18.218;2023-05-07T00:05:21;102054.30;;;5.86;80.64
75551;BME280;65071;53.082;18.218;2023-05-07T00:07:47;102058.67;;;5.80;80.72
75551;BME280;65071;53.082;18.218;2023-05-07T00:10:14;102056.27;;;5.76;80.61
75551;BME280;65071;53.082;18.218;2023-05-07T00:12:41;102053.87;;;5.71;80.75
75551;BME280;65071;53.082;18.218;2023-05-07T00:15:08;102056.52;;;5.65;80.59
75551;BME280;65071;53.082;18.218;2023-05-07T00:17:34;102056.15;;;5.60;80.57
75551;BME280;65071;53.082;18.218;2023-05-07T00:20:02;102053.61;;;5.54;80.76
75551;BME280;65071;53.082;18.218;2023-05-07T00:22:30;102057.15;;;5.49;80.78
75551;BME280;65071;53.082;18.218;2023-05-07T00:24:57;102057.84;;;5.43;80.84
75551;BME280;65071;53.082;18.218;2023-05-07T00:27:24;102062.41;;;5.38;80.83
75551;BME280;65071;53.082;18.218;2023-05-07T00:29:51;102060.95;;;5.33;80.77
75551;BME280;65071;53.082;18.218;2023-05-07T00:32:18;102063.80;;;5.27;80.87
75551;BME280;65071;53.082;18.218;2023-05-07T00:34:44;102063.36;;;5.22;80.70
75551;BME280;65071;53.082;18.218;2023-05-07T00:37:11;102063.36;;;5.16;80.55
75551;BME280;65071;53.082;18.218;2023-05-07T00:39:38;102067.80;;;5.10;80.79
75551;BME280;65071;53.082;18.218;2023-05-07T00:42:04;102068.56;;;5.02;80.76
75551;BME280;65071;53.082;18.218;2023-05-07T00:44:31;102067.17;;;4.96;80.81
75551;BME280;65071;53.082;18.218;2023-05-07T00:46:58;102073.58;;;4.89;80.80
75551;BME280;65071;53.082;18.218;2023-05-07T00:49:41;102075.67;;;4.84;81.02
75551;BME280;65071;53.082;18.218;2023-05-07T00:52:11;102082.73;;;4.76;81.18
75551;BME280;65071;53.082;18.218;2023-05-07T00:54:40;102092.27;;;4.68;81.03
75551;BME280;65071;53.082;18.218;2023-05-07T00:57:07;102093.68;;;4.61;80.96
75551;BME280;65071;53.082;18.218;2023-05-07T00:59:35;102094.14;;;4.56;80.88
75551;BME280;65071;53.082;18.218;2023-05-07T01:02:01;102095.46;;;4.51;80.89
75551;BME280;65071;53.082;18.218;2023-05-07T01:04:28;102091.20;;;4.48;80.91
75551;BME280;65071;53.082;18.218;2023-05-07T01:06:56;102091.77;;;4.44;80.83
75551;BME280;65071;53.082;18.218;2023-05-07T01:09:26;102092.73;;;4.39;80.52
75551;BME280;65071;53.082;18.218;2023-05-07T01:11:54;102087.23;;;4.32;81.15
75551;BME280;65071;53.082;18.218;2023-05-07T01:14:21;102091.60;;;4.27;80.80
75551;BME280;65071;53.082;18.218;2023-05-07T01:16:48;102093.83;;;4.22;80.90
75551;BME280;65071;53.082;18.218;2023-05-07T01:19:18;102091.27;;;4.16;80.84
75551;BME280;65071;53.082;18.218;2023-05-07T01:21:47;102094.16;;;4.12;80.90
75551;BME280;65071;53.082;18.218;2023-05-07T01:24:15;102097.45;;;4.07;80.73
75551;BME280;65071;53.082;18.218;2023-05-07T01:26:43;102097.31;;;4.03;81.20
75551;BME280;65071;53.082;18.218;2023-05-07T01:29:12;102095.61;;;3.98;81.08
75551;BME280;65071;53.082;18.218;2023-05-07T01:31:40;102098.85;;;3.94;80.93
75551;BME280;65071;53.082;18.218;2023-05-07T01:34:10;102096.08;;;3.89;80.99
75551;BME280;65071;53.082;18.218;2023-05-07T01:36:39;102096.00;;;3.84;80.81
75551;BME280;65071;53.082;18.218;2023-05-07T01:39:08;102099.52;;;3.78;80.84
75551;BME280;65071;53.082;18.218;2023-05-07T01:41:35;102097.33;;;3.72;80.95
75551;BME280;65071;53.082;18.218;2023-05-07T01:44:03;102097.54;;;3.67;81.08
75551;BME280;65071;53.082;18.218;2023-05-07T01:46:31;102100.12;;;3.62;81.07
75551;BME280;65071;53.082;18.218;2023-05-07T01:48:57;102102.32;;;3.57;80.91
75551;BME280;65071;53.082;18.218;2023-05-07T01:51:24;102106.70;;;3.51;81.12
75551;BME280;65071;53.082;18.218;2023-05-07T01:53:53;102108.61;;;3.45;81.43
75551;BME280;65071;53.082;18.218;2023-05-07T01:56:19;102115.05;;;3.40;81.44
75551;BME280;65071;53.082;18.218;2023-05-07T01:58:46;102116.14;;;3.36;81.28
75551;BME280;65071;53.082;18.218;2023-05-07T02:01:13;102114.16;;;3.33;81.21
75551;BME280;65071;53.082;18.218;2023-05-07T02:03:40;102114.53;;;3.33;81.38
75551;BME280;65071;53.082;18.218;2023-05-07T02:06:10;102118.59;;;3.33;81.44
75551;BME280;65071;53.082;18.218;2023-05-07T02:08:38;102115.48;;;3.35;81.36
75551;BME280;65071;53.082;18.218;2023-05-07T02:11:05;102115.53;;;3.38;81.75
75551;BME280;65071;53.082;18.218;2023-05-07T02:13:33;102118.14;;;3.39;82.14
75551;BME280;65071;53.082;18.218;2023-05-07T02:16:01;102118.34;;;3.39;82.58
75551;BME280;65071;53.082;18.218;2023-05-07T02:18:28;102121.27;;;3.37;83.13
75551;BME280;65071;53.082;18.218;2023-05-07T02:20:55;102124.16;;;3.36;82.85
75551;BME280;65071;53.082;18.218;2023-05-07T02:23:22;102122.11;;;3.34;82.70
75551;BME280;65071;53.082;18.218;2023-05-07T02:25:48;102124.42;;;3.34;83.39
75551;BME280;65071;53.082;18.218;2023-05-07T02:28:15;102125.43;;;3.32;83.43
75551;BME280;65071;53.082;18.218;2023-05-07T02:30:59;102123.77;;;3.29;83.30
75551;BME280;65071;53.082;18.218;2023-05-07T02:33:27;102125.82;;;3.28;83.38
75551;BME280;65071;53.082;18.218;2023-05-07T02:35:53;102126.47;;;3.25;83.47
75551;BME280;65071;53.082;18.218;2023-05-07T02:38:20;102130.21;;;3.21;83.94
75551;BME280;65071;53.082;18.218;2023-05-07T02:40:46;102133.94;;;3.18;83.49
75551;BME280;65071;53.082;18.218;2023-05-07T02:43:13;102136.89;;;3.16;83.08
75551;BME280;65071;53.082;18.218;2023-05-07T02:45:42;102134.84;;;3.14;83.48
75551;BME280;65071;53.082;18.218;2023-05-07T02:48:09;102132.92;;;3.09;83.10
75551;BME280;65071;53.082;18.218;2023-05-07T02:50:36;102132.45;;;3.04;83.46
75551;BME280;65071;53.082;18.218;2023-05-07T02:53:02;102132.42;;;3.01;83.04
75551;BME280;65071;53.082;18.218;2023-05-07T02:55:30;102138.04;;;2.99;82.91
75551;BME280;65071;53.082;18.218;2023-05-07T02:57:56;102142.34;;;2.94;83.03
75551;BME280;65071;53.082;18.218;2023-05-07T03:00:23;102141.66;;;2.89;83.11
75551;BME280;65071;53.082;18.218;2023-05-07T03:02:57;102141.38;;;2.84;83.22
75551;BME280;65071;53.082;18.218;2023-05-07T03:05:24;102143.72;;;2.79;82.99
75551;BME280;65071;53.082;18.218;2023-05-07T03:07:50;102144.75;;;2.76;83.31
75551;BME280;65071;53.082;18.218;2023-05-07T03:10:17;102147.77;;;2.73;83.24
75551;BME280;65071;53.082;18.218;2023-05-07T03:12:44;102150.36;;;2.70;83.18
75551;BME280;65071;53.082;18.218;2023-05-07T03:15:12;102152.67;;;2.70;82.77
75551;BME280;65071;53.082;18.218;2023-05-07T03:17:39;102158.20;;;2.70;83.10
75551;BME280;65071;53.082;18.218;2023-05-07T03:20:06;102158.08;;;2.69;82.80
75551;BME280;65071;53.082;18.218;2023-05-07T03:22:33;102164.14;;;2.68;82.78
75551;BME280;65071;53.082;18.218;2023-05-07T03:25:00;102166.77;;;2.65;82.77
75551;BME280;65071;53.082;18.218;2023-05-07T03:27:26;102168.13;;;2.62;82.59
75551;BME280;65071;53.082;18.218;2023-05-07T03:29:53;102171.12;;;2.59;82.96
75551;BME280;65071;53.082;18.218;2023-05-07T03:32:20;102166.02;;;2.58;83.04
75551;BME280;65071;53.082;18.218;2023-05-07T03:34:46;102169.53;;;2.59;82.77
75551;BME280;65071;53.082;18.218;2023-05-07T03:37:13;102173.02;;;2.60;82.85
75551;BME280;65071;53.082;18.218;2023-05-07T03:39:41;102172.65;;;2.64;82.71
75551;BME280;65071;53.082;18.218;2023-05-07T03:42:08;102180.22;;;2.70;82.60
75551;BME280;65071;53.082;18.218;2023-05-07T03:44:34;102182.13;;;2.79;82.68
75551;BME280;65071;53.082;18.218;2023-05-07T03:47:03;102180.30;;;2.88;82.59
75551;BME280;65071;53.082;18.218;2023-05-07T03:49:30;102181.71;;;2.96;82.57
75551;BME280;65071;53.082;18.218;2023-05-07T03:51:57;102181.80;;;3.02;82.86
75551;BME280;65071;53.082;18.218;2023-05-07T03:54:23;102181.99;;;3.05;82.88
75551;BME280;65071;53.082;18.218;2023-05-07T03:56:50;102188.30;;;3.07;83.38
75551;BME280;65071;53.082;18.218;2023-05-07T03:59:16;102190.61;;;3.11;83.08
75551;BME280;65071;53.082;18.218;2023-05-07T04:01:43;102192.11;;;3.17;82.55
75551;BME280;65071;53.082;18.218;2023-05-07T04:04:15;102195.39;;;3.23;82.55
75551;BME280;65071;53.082;18.218;2023-05-07T04:06:42;102196.40;;;3.28;82.31
75551;BME280;65071;53.082;18.218;2023-05-07T04:09:09;102202.42;;;3.32;82.32
75551;BME280;65071;53.082;18.218;2023-05-07T04:11:35;102206.48;;;3.36;82.47
75551;BME280;65071;53.082;18.218;2023-05-07T04:14:02;102207.11;;;3.42;82.53
75551;BME280;65071;53.082;18.218;2023-05-07T04:16:29;102208.76;;;3.48;82.75
75551;BME280;65071;53.082;18.218;2023-05-07T04:18:55;102216.63;;;3.55;83.56
75551;BME280;65071;53.082;18.218;2023-05-07T04:21:22;102218.41;;;3.58;83.31
75551;BME280;65071;53.082;18.218;2023-05-07T04:23:49;102223.01;;;3.62;83.31
75551;BME280;65071;53.082;18.218;2023-05-07T04:26:16;102221.17;;;3.67;83.94
75551;BME280;65071;53.082;18.218;2023-05-07T04:28:44;102221.91;;;3.74;83.87
75551;BME280;65071;53.082;18.218;2023-05-07T04:31:11;102222.10;;;3.81;84.24
75551;BME280;65071;53.082;18.218;2023-05-07T04:33:38;102225.87;;;3.91;84.17
75551;BME280;65071;53.082;18.218;2023-05-07T04:36:05;102228.87;;;4.03;83.93
75551;BME280;65071;53.082;18.218;2023-05-07T04:38:36;102231.08;;;4.15;83.73
75551;BME280;65071;53.082;18.218;2023-05-07T04:41:04;102233.06;;;4.25;83.59
75551;BME280;65071;53.082;18.218;2023-05-07T04:43:32;102233.48;;;4.35;83.46
75551;BME280;65071;53.082;18.218;2023-05-07T04:45:59;102233.14;;;4.45;83.33
75551;BME280;65071;53.082;18.218;2023-05-07T04:48:26;102236.08;;;4.58;82.92
75551;BME280;65071;53.082;18.218;2023-05-07T04:50:53;102241.94;;;4.71;82.82
75551;BME280;65071;53.082;18.218;2023-05-07T04:53:20;102241.30;;;4.87;82.52
75551;BME280;65071;53.082;18.218;2023-05-07T04:55:47;102244.42;;;5.08;82.20
75551;BME280;65071;53.082;18.218;2023-05-07T04:58:14;102242.25;;;5.35;81.39
75551;BME280;65071;53.082;18.218;2023-05-07T05:00:42;102243.68;;;5.54;81.38
75551;BME280;65071;53.082;18.218;2023-05-07T05:03:08;102244.89;;;5.71;80.85
75551;BME280;65071;53.082;18.218;2023-05-07T05:05:36;102239.60;;;5.92;80.70
75551;BME280;65071;53.082;18.218;2023-05-07T05:08:03;102236.77;;;6.16;80.36
75551;BME280;65071;53.082;18.218;2023-05-07T05:10:29;102237.90;;;6.34;79.86
75551;BME280;65071;53.082;18.218;2023-05-07T05:12:56;102244.17;;;6.45;79.68
75551;BME280;65071;53.082;18.218;2023-05-07T05:15:23;102249.35;;;6.66;79.59
75551;BME280;65071;53.082;18.218;2023-05-07T05:17:49;102250.31;;;6.86;79.19
75551;BME280;65071;53.082;18.218;2023-05-07T05:20:16;102243.55;;;7.05;78.81
75551;BME280;65071;53.082;18.218;2023-05-07T05:22:43;102247.23;;;7.29;78.67
75551;BME280;65071;53.082;18.218;2023-05-07T05:25:10;102256.19;;;7.52;78.14
75551;BME280;65071;53.082;18.218;2023-05-07T05:27:37;102256.19;;;7.66;76.73
75551;BME280;65071;53.082;18.218;2023-05-07T05:30:04;102256.00;;;7.88;77.67
75551;BME280;65071;53.082;18.218;2023-05-07T05:32:32;102252.34;;;8.11;76.96
75551;BME280;65071;53.082;18.218;2023-05-07T05:34:59;102255.36;;;8.36;77.16
75551;BME280;65071;53.082;18.218;2023-05-07T05:37:26;102257.05;;;8.61;76.68
75551;BME280;65071;53.082;18.218;2023-05-07T05:39:53;102260.14;;;8.84;75.45
75551;BME280;65071;53.082;18.218;2023-05-07T05:42:21;102266.91;;;9.05;75.08
75551;BME280;65071;53.082;18.218;2023-05-07T05:44:48;102266.59;;;9.30;75.33
75551;BME280;65071;53.082;18.218;2023-05-07T05:47:14;102260.70;;;9.52;73.86
75551;BME280;65071;53.082;18.218;2023-05-07T05:49:41;102261.38;;;9.67;73.26
75551;BME280;65071;53.082;18.218;2023-05-07T05:52:12;102267.63;;;9.82;73.18
75551;BME280;65071;53.082;18.218;2023-05-07T05:54:39;102266.34;;;9.90;71.64
75551;BME280;65071;53.082;18.218;2023-05-07T05:57:05;102263.42;;;10.00;72.55
75551;BME280;65071;53.082;18.218;2023-05-07T05:59:32;102263.56;;;10.18;72.77
75551;BME280;65071;53.082;18.218;2023-05-07T06:01:59;102269.21;;;10.27;70.70
75551;BME280;65071;53.082;18.218;2023-05-07T06:04:26;102267.89;;;10.32;69.86
75551;BME280;65071;53.082;18.218;2023-05-07T06:06:52;102267.98;;;10.45;70.91
75551;BME280;65071;53.082;18.218;2023-05-07T06:09:20;102266.95;;;10.61;69.93
75551;BME280;65071;53.082;18.218;2023-05-07T06:11:46;102269.11;;;10.82;70.54
75551;BME280;65071;53.082;18.218;2023-05-07T06:14:13;102269.83;;;10.91;67.86
75551;BME280;65071;53.082;18.218;2023-05-07T06:16:40;102270.02;;;11.08;69.78
75551;BME280;65071;53.082;18.218;2023-05-07T06:19:07;102265.23;;;11.18;67.50
75551;BME280;65071;53.082;18.218;2023-05-07T06:21:34;102263.52;;;11.19;66.70
75551;BME280;65071;53.082;18.218;2023-05-07T06:24:01;102263.77;;;11.34;66.28
75551;BME280;65071;53.082;18.218;2023-05-07T06:26:28;102262.52;;;11.45;64.76
75551;BME280;65071;53.082;18.218;2023-05-07T06:28:55;102264.71;;;11.53;65.08
75551;BME280;65071;53.082;18.218;2023-05-07T06:31:21;102272.91;;;11.59;63.72
75551;BME280;65071;53.082;18.218;2023-05-07T06:34:01;102270.09;;;11.77;63.69
75551;BME280;65071;53.082;18.218;2023-05-07T06:36:32;102273.48;;;11.83;63.28
75551;BME280;65071;53.082;18.218;2023-05-07T06:38:59;102272.20;;;11.97;60.20
75551;BME280;65071;53.082;18.218;2023-05-07T06:41:26;102271.47;;;11.97;57.84
75551;BME280;65071;53.082;18.218;2023-05-07T06:43:52;102271.29;;;11.91;56.66
75551;BME280;65071;53.082;18.218;2023-05-07T06:46:36;102279.14;;;11.89;56.29
75551;BME280;65071;53.082;18.218;2023-05-07T06:49:04;102279.84;;;11.89;56.27
75551;BME280;65071;53.082;18.218;2023-05-07T06:51:31;102282.52;;;11.92;56.21
75551;BME280;65071;53.082;18.218;2023-05-07T06:54:01;102285.27;;;12.04;55.32
75551;BME280;65071;53.082;18.218;2023-05-07T06:56:28;102286.65;;;12.05;55.03
75551;BME280;65071;53.082;18.218;2023-05-07T06:58:55;102285.52;;;12.14;54.69
75551;BME280;65071;53.082;18.218;2023-05-07T07:01:21;102288.34;;;12.24;55.62
75551;BME280;65071;53.082;18.218;2023-05-07T07:03:48;102288.08;;;12.31;54.78
75551;BME280;65071;53.082;18.218;2023-05-07T07:06:15;102288.25;;;12.36;54.16
75551;BME280;65071;53.082;18.218;2023-05-07T07:08:42;102289.21;;;12.28;52.49
75551;BME280;65071;53.082;18.218;2023-05-07T07:11:10;102291.86;;;12.25;52.47
75551;BME280;65071;53.082;18.218;2023-05-07T07:13:37;102289.72;;;12.33;53.07
75551;BME280;65071;53.082;18.218;2023-05-07T07:16:04;102296.63;;;12.48;52.61
75551;BME280;65071;53.082;18.218;2023-05-07T07:18:31;102300.63;;;12.54;52.49
75551;BME280;65071;53.082;18.218;2023-05-07T07:20:58;102301.00;;;12.66;52.50
75551;BME280;65071;53.082;18.218;2023-05-07T07:23:25;102297.73;;;12.83;53.32
75551;BME280;65071;53.082;18.218;2023-05-07T07:25:52;102298.99;;;12.96;52.72
75551;BME280;65071;53.082;18.218;2023-05-07T07:28:21;102303.01;;;13.04;51.21
75551;BME280;65071;53.082;18.218;2023-05-07T07:30:48;102303.71;;;13.13;52.01
75551;BME280;65071;53.082;18.218;2023-05-07T07:33:15;102301.05;;;13.19;50.44
75551;BME280;65071;53.082;18.218;2023-05-07T07:35:42;102297.23;;;13.37;52.82
75551;BME280;65071;53.082;18.218;2023-05-07T07:38:10;102297.90;;;13.48;50.83
75551;BME280;65071;53.082;18.218;2023-05-07T07:40:37;102299.27;;;13.41;48.97
75551;BME280;65071;53.082;18.218;2023-05-07T07:43:04;102295.05;;;13.31;49.68
75551;BME280;65071;53.082;18.218;2023-05-07T07:45:31;102297.32;;;13.42;50.21
75551;BME280;65071;53.082;18.218;2023-05-07T07:47:58;102301.48;;;13.42;48.96
75551;BME280;65071;53.082;18.218;2023-05-07T07:50:24;102302.59;;;13.46;48.51
75551;BME280;65071;53.082;18.218;2023-05-07T07:52:51;102303.55;;;13.52;49.52
75551;BME280;65071;53.082;18.218;2023-05-07T07:55:20;102305.03;;;13.47;48.07
75551;BME280;65071;53.082;18.218;2023-05-07T07:57:49;102303.46;;;13.52;47.87
75551;BME280;65071;53.082;18.218;2023-05-07T08:00:16;102307.77;;;13.59;48.58
75551;BME280;65071;53.082;18.218;2023-05-07T08:02:43;102307.27;;;13.66;49.36
75551;BME280;65071;53.082;18.218;2023-05-07T08:05:11;102307.11;;;13.79;48.60
75551;BME280;65071;53.082;18.218;2023-05-07T08:07:37;102304.98;;;13.82;47.91
75551;BME280;65071;53.082;18.218;2023-05-07T08:10:04;102310.48;;;13.93;49.42
75551;BME280;65071;53.082;18.218;2023-05-07T08:12:32;102308.23;;;13.94;47.20
75551;BME280;65071;53.082;18.218;2023-05-07T08:14:59;102308.52;;;13.95;48.83
75551;BME280;65071;53.082;18.218;2023-05-07T08:17:26;102307.97;;;14.09;49.05
75551;BME280;65071;53.082;18.218;2023-05-07T08:19:53;102311.80;;;14.18;48.37
75551;BME280;65071;53.082;18.218;2023-05-07T08:22:19;102312.02;;;14.30;47.49
75551;BME280;65071;53.082;18.218;2023-05-07T08:24:46;102312.66;;;14.25;46.59
75551;BME280;65071;53.082;18.218;2023-05-07T08:27:13;102307.02;;;14.29;47.28
75551;BME280;65071;53.082;18.218;2023-05-07T08:29:41;102309.23;;;14.39;48.33
75551;BME280;65071;53.082;18.218;2023-05-07T08:32:08;102311.48;;;14.44;47.18
75551;BME280;65071;53.082;18.218;2023-05-07T08:34:34;102312.15;;;14.44;47.07
75551;BME280;65071;53.082;18.218;2023-05-07T08:37:02;102313.04;;;14.58;47.82
75551;BME280;65071;53.082;18.218;2023-05-07T08:39:29;102317.63;;;14.66;47.43
75551;BME280;65071;53.082;18.218;2023-05-07T08:41:57;102313.58;;;14.69;46.70
75551;BME280;65071;53.082;18.218;2023-05-07T08:44:26;102314.80;;;14.67;46.20
75551;BME280;65071;53.082;18.218;2023-05-07T08:46:56;102312.96;;;14.67;46.52
75551;BME280;65071;53.082;18.218;2023-05-07T08:49:24;102321.52;;;14.76;46.37
75551;BME280;65071;53.082;18.218;2023-05-07T08:51:52;102318.48;;;14.78;45.28
75551;BME280;65071;53.082;18.218;2023-05-07T08:54:20;102321.58;;;14.76;47.19
75551;BME280;65071;53.082;18.218;2023-05-07T08:56:47;102323.63;;;14.83;47.17
75551;BME280;65071;53.082;18.218;2023-05-07T08:59:14;102329.50;;;14.74;47.13
75551;BME280;65071;53.082;18.218;2023-05-07T09:01:41;102329.08;;;14.73;45.42
75551;BME280;65071;53.082;18.218;2023-05-07T09:04:08;102326.02;;;14.75;46.75
75551;BME280;65071;53.082;18.218;2023-05-07T09:06:35;102326.50;;;14.83;46.45
75551;BME280;65071;53.082;18.218;2023-05-07T09:09:04;102328.66;;;14.89;46.48
75551;BME280;65071;53.082;18.218;2023-05-07T09:11:32;102332.61;;;15.01;47.38
75551;BME280;65071;53.082;18.218;2023-05-07T09:14:00;102327.94;;;15.13;47.49
75551;BME280;65071;53.082;18.218;2023-05-07T09:16:34;102324.07;;;15.24;46.71
75551;BME280;65071;53.082;18.218;2023-05-07T09:19:01;102328.67;;;15.19;46.43
75551;BME280;65071;53.082;18.218;2023-05-07T09:21:28;102326.91;;;15.05;45.34
75551;BME280;65071;53.082;18.218;2023-05-07T09:23:55;102330.17;;;14.92;45.10
75551;BME280;65071;53.082;18.218;2023-05-07T09:26:26;102325.52;;;14.95;45.71
75551;BME280;65071;53.082;18.218;2023-05-07T09:28:54;102331.04;;;14.79;45.50
75551;BME280;65071;53.082;18.218;2023-05-07T09:31:21;102324.92;;;14.82;46.17
75551;BME280;65071;53.082;18.218;2023-05-07T09:33:49;102321.40;;;14.79;44.60
75551;BME280;65071;53.082;18.218;2023-05-07T09:36:17;102322.96;;;14.88;45.88
75551;BME280;65071;53.082;18.218;2023-05-07T09:38:45;102325.77;;;14.72;46.08
75551;BME280;65071;53.082;18.218;2023-05-07T09:41:12;102329.71;;;14.62;46.67
75551;BME280;65071;53.082;18.218;2023-05-07T09:43:53;102336.83;;;14.56;46.40
75551;BME280;65071;53.082;18.218;2023-05-07T09:46:25;102334.04;;;14.49;46.04
75551;BME280;65071;53.082;18.218;2023-05-07T09:48:57;102345.45;;;14.34;45.95
75551;BME280;65071;53.082;18.218;2023-05-07T09:51:28;102341.89;;;14.24;45.93
75551;BME280;65071;53.082;18.218;2023-05-07T09:53:59;102335.33;;;14.07;45.48
75551;BME280;65071;53.082;18.218;2023-05-07T09:56:29;102336.09;;;14.08;46.57
75551;BME280;65071;53.082;18.218;2023-05-07T09:58:59;102340.33;;;14.19;45.77
75551;BME280;65071;53.082;18.218;2023-05-07T10:01:27;102342.27;;;14.22;45.79
75551;BME280;65071;53.082;18.218;2023-05-07T10:03:55;102346.52;;;14.27;45.80
75551;BME280;65071;53.082;18.218;2023-05-07T10:06:25;102356.88;;;14.24;45.12
75551;BME280;65071;53.082;18.218;2023-05-07T10:08:52;102352.50;;;14.27;45.46
75551;BME280;65071;53.082;18.218;2023-05-07T10:11:19;102353.96;;;14.24;44.78
75551;BME280;65071;53.082;18.218;2023-05-07T10:13:47;102355.05;;;14.28;44.57
75551;BME280;65071;53.082;18.218;2023-05-07T10:16:14;102353.05;;;14.29;44.74
75551;BME280;65071;53.082;18.218;2023-05-07T10:18:45;102357.09;;;14.24;45.04
75551;BME280;65071;53.082;18.218;2023-05-07T10:21:18;102355.30;;;14.28;44.91
75551;BME280;65071;53.082;18.218;2023-05-07T10:23:49;102355.55;;;14.29;45.15
75551;BME280;65071;53.082;18.218;2023-05-07T10:26:18;102358.96;;;14.37;45.20
75551;BME280;65071;53.082;18.218;2023-05-07T10:28:49;102353.36;;;14.49;44.91
75551;BME280;65071;53.082;18.218;2023-05-07T10:31:44;102356.12;;;14.43;43.36
75551;BME280;65071;53.082;18.218;2023-05-07T10:34:21;102355.64;;;14.26;43.71
75551;BME280;65071;53.082;18.218;2023-05-07T10:36:49;102353.44;;;14.32;44.57
75551;BME280;65071;53.082;18.218;2023-05-07T10:39:16;102341.52;;;14.52;44.07
75551;BME280;65071;53.082;18.218;2023-05-07T10:41:43;102346.63;;;14.75;45.04
75551;BME280;65071;53.082;18.218;2023-05-07T10:44:10;102347.63;;;14.95;43.42
75551;BME280;65071;53.082;18.218;2023-05-07T10:46:38;102344.81;;;15.02;43.35
75551;BME280;65071;53.082;18.218;2023-05-07T10:49:12;102346.48;;;15.11;43.84
75551;BME280;65071;53.082;18.218;2023-05-07T10:51:43;102349.02;;;15.19;43.28
75551;BME280;65071;53.082;18.218;2023-05-07T10:54:21;102341.33;;;15.22;42.44
75551;BME280;65071;53.082;18.218;2023-05-07T10:56:55;102344.21;;;15.24;42.47
75551;BME280;65071;53.082;18.218;2023-05-07T10:59:32;102348.61;;;15.21;42.21
75551;BME280;65071;53.082;18.218;2023-05-07T11:02:13;102351.80;;;15.20;42.33
75551;BME280;65071;53.082;18.218;2023-05-07T11:05:23;102346.11;;;15.13;41.66
75551;BME280;65071;53.082;18.218;2023-05-07T11:08:19;102340.34;;;15.11;41.90
75551;BME280;65071;53.082;18.218;2023-05-07T11:11:04;102341.13;;;15.14;42.38
75551;BME280;65071;53.082;18.218;2023-05-07T11:13:44;102343.73;;;15.11;42.50
75551;BME280;65071;53.082;18.218;2023-05-07T11:16:24;102345.11;;;15.20;41.66
75551;BME280;65071;53.082;18.218;2023-05-07T11:18:57;102343.95;;;15.36;41.55
75551;BME280;65071;53.082;18.218;2023-05-07T11:21:34;102350.74;;;15.45;40.58
75551;BME280;65071;53.082;18.218;2023-05-07T11:24:09;102353.39;;;15.34;41.53
75551;BME280;65071;53.082;18.218;2023-05-07T11:27:01;102356.20;;;15.12;43.22
75551;BME280;65071;53.082;18.218;2023-05-07T11:29:28;102359.86;;;15.00;43.67
75551;BME280;65071;53.082;18.218;2023-05-07T11:31:58;102359.26;;;14.91;43.04
75551;BME280;65071;53.082;18.218;2023-05-07T11:34:29;102353.34;;;14.88;43.33
75551;BME280;65071;53.082;18.218;2023-05-07T11:36:58;102348.89;;;15.01;43.05
75551;BME280;65071;53.082;18.218;2023-05-07T11:39:35;102348.36;;;15.08;41.53
75551;BME280;65071;53.082;18.218;2023-05-07T11:42:02;102347.71;;;14.98;41.34
75551;BME280;65071;53.082;18.218;2023-05-07T11:44:44;102345.83;;;15.03;41.93
75551;BME280;65071;53.082;18.218;2023-05-07T11:47:17;102345.77;;;15.11;40.82
75551;BME280;65071;53.082;18.218;2023-05-07T11:49:49;102347.94;;;15.15;40.21
75551;BME280;65071;53.082;18.218;2023-05-07T11:52:17;102352.54;;;15.14;40.77
75551;BME280;65071;53.082;18.218;2023-05-07T11:54:51;102351.42;;;15.10;40.47
75551;BME280;65071;53.082;18.218;2023-05-07T11:57:18;102356.86;;;15.12;40.96
75551;BME280;65071;53.082;18.218;2023-05-07T11:59:45;102353.33;;;15.02;40.16
75551;BME280;65071;53.082;18.218;2023-05-07T12:02:17;102358.05;;;14.88;40.68
75551;BME280;65071;53.082;18.218;2023-05-07T12:04:44;102357.46;;;14.85;40.85
75551;BME280;65071;53.082;18.218;2023-05-07T12:07:14;102355.58;;;14.90;41.43
75551;BME280;65071;53.082;18.218;2023-05-07T12:09:42;102353.23;;;14.92;40.97
75551;BME280;65071;53.082;18.218;2023-05-07T12:12:09;102354.30;;;14.98;41.26
75551;BME280;65071;53.082;18.218;2023-05-07T12:14:39;102349.73;;;15.11;40.70
75551;BME280;65071;53.082;18.218;2023-05-07T12:17:11;102356.44;;;15.23;40.53
75551;BME280;65071;53.082;18.218;2023-05-07T12:19:39;102351.73;;;15.28;40.67
75551;BME280;65071;53.082;18.218;2023-05-07T12:22:10;102353.51;;;15.33;39.20
75551;BME280;65071;53.082;18.218;2023-05-07T12:24:49;102352.60;;;15.27;38.76
75551;BME280;65071;53.082;18.218;2023-05-07T12:27:17;102355.34;;;15.32;38.93
75551;BME280;65071;53.082;18.218;2023-05-07T12:29:46;102355.78;;;15.41;39.57
75551;BME280;65071;53.082;18.218;2023-05-07T12:32:14;102351.22;;;15.45;38.53
75551;BME280;65071;53.082;18.218;2023-05-07T12:34:41;102349.59;;;15.43;38.14
75551;BME280;65071;53.082;18.218;2023-05-07T12:37:08;102351.84;;;15.47;38.95
75551;BME280;65071;53.082;18.218;2023-05-07T12:39:34;102352.84;;;15.45;39.45
75551;BME280;65071;53.082;18.218;2023-05-07T12:42:01;102353.17;;;15.51;40.50
75551;BME280;65071;53.082;18.218;2023-05-07T12:44:34;102352.58;;;15.52;39.67
75551;BME280;65071;53.082;18.218;2023-05-07T12:47:01;102353.83;;;15.65;40.44
75551;BME280;65071;53.082;18.218;2023-05-07T12:49:28;102355.98;;;15.78;39.56
75551;BME280;65071;53.082;18.218;2023-05-07T12:51:55;102355.23;;;15.88;38.77